Time;durP1;ratioP1;P1;durP2;ratioP2;P2;SDS_P1;SDS_P2;PMS_P1;PMS_P2;Temp;Humidity;BMP_temperature;BMP_pressure;BME280_temperature;BME280_humidity;BME280_pressure;Samples;Min_cycle;Max_cycle;Signal;HPM_P1;HPM_P2
2022/11/22 00:00:06;;;;;;;21.95;10.45;;;4.00;99.90;;;;;;5069973;28;20039;-68
2022/11/22 00:02:33;;;;;;;19.95;10.35;;;4.00;99.90;;;;;;5067504;28;20040;-68
2022/11/22 00:04:58;;;;;;;21.52;10.00;;;3.90;99.90;;;;;;5071304;28;20032;-68
2022/11/22 00:07:24;;;;;;;24.52;10.27;;;4.00;99.90;;;;;;5071582;28;20048;-68
2022/11/22 00:09:49;;;;;;;23.17;9.63;;;3.90;99.90;;;;;;5071650;28;20033;-68
2022/11/22 00:12:15;;;;;;;24.38;10.60;;;3.90;99.90;;;;;;5071429;28;20040;-68
2022/11/22 00:14:40;;;;;;;18.58;9.45;;;3.90;99.90;;;;;;5068850;28;20044;-68
2022/11/22 00:17:06;;;;;;;22.25;10.48;;;4.00;99.90;;;;;;5070202;28;20071;-68
2022/11/22 00:19:32;;;;;;;19.90;10.70;;;4.00;99.90;;;;;;5071127;28;20086;-68
2022/11/22 00:21:57;;;;;;;20.70;10.63;;;4.00;99.90;;;;;;5070739;28;20420;-68
2022/11/22 00:24:23;;;;;;;18.70;9.85;;;4.00;99.90;;;;;;5070424;28;20040;-68
2022/11/22 00:26:48;;;;;;;19.45;10.25;;;4.00;99.90;;;;;;5071099;28;20040;-68
2022/11/22 00:29:14;;;;;;;20.65;10.20;;;4.10;99.90;;;;;;5071029;28;20044;-68
2022/11/22 00:31:40;;;;;;;18.05;9.70;;;4.10;99.90;;;;;;5071093;28;20050;-68
2022/11/22 00:34:06;;;;;;;23.10;10.52;;;4.00;99.90;;;;;;5070549;28;20493;-68
2022/11/22 00:36:31;;;;;;;20.27;10.57;;;4.00;99.90;;;;;;5069403;28;20036;-68
2022/11/22 00:38:57;;;;;;;21.40;10.40;;;4.00;99.90;;;;;;5070545;28;20133;-68
2022/11/22 00:41:22;;;;;;;21.50;9.20;;;4.00;99.90;;;;;;5070821;28;20044;-68
2022/11/22 00:43:48;;;;;;;20.75;10.27;;;4.00;99.90;;;;;;5070424;28;20037;-68
2022/11/22 00:46:13;;;;;;;21.02;9.50;;;4.00;99.90;;;;;;5070762;28;20056;-68
2022/11/22 00:48:39;;;;;;;20.70;9.82;;;4.00;99.90;;;;;;5070713;28;20033;-68
2022/11/22 00:51:04;;;;;;;23.20;11.00;;;4.00;99.90;;;;;;5070518;28;20044;-68
2022/11/22 00:53:30;;;;;;;21.38;10.65;;;4.10;99.90;;;;;;5070629;28;20044;-68
2022/11/22 00:55:55;;;;;;;25.40;11.30;;;4.00;99.90;;;;;;5070471;28;20036;-68
2022/11/22 00:58:21;;;;;;;25.17;12.32;;;4.00;99.90;;;;;;5070613;28;20512;-68
2022/11/22 01:00:48;;;;;;;21.90;11.57;;;4.10;99.90;;;;;;5070694;28;20071;-68
2022/11/22 01:03:14;;;;;;;23.98;11.65;;;4.00;99.90;;;;;;5070475;28;20060;-68
2022/11/22 01:05:39;;;;;;;21.50;10.65;;;4.00;99.90;;;;;;5070322;28;20444;-68
2022/11/22 01:08:05;;;;;;;24.58;10.88;;;4.10;99.90;;;;;;5070509;28;20489;-68
2022/11/22 01:10:31;;;;;;;25.60;11.05;;;4.00;99.90;;;;;;5070581;28;20401;-68
2022/11/22 01:12:57;;;;;;;21.25;10.57;;;4.00;99.90;;;;;;5070133;28;20489;-68
2022/11/22 01:15:23;;;;;;;28.05;10.85;;;4.10;99.90;;;;;;5069708;28;20795;-68
2022/11/22 01:17:48;;;;;;;23.15;10.57;;;4.10;99.90;;;;;;5070234;28;20127;-68
2022/11/22 01:20:14;;;;;;;20.38;10.35;;;4.10;99.90;;;;;;5070475;28;20048;-68
2022/11/22 01:22:40;;;;;;;24.17;10.98;;;4.20;99.90;;;;;;5070173;28;20048;-68
2022/11/22 01:25:06;;;;;;;19.85;10.68;;;4.20;99.90;;;;;;5070157;28;20028;-68
2022/11/22 01:27:31;;;;;;;24.88;10.85;;;4.10;99.90;;;;;;5070188;28;20048;-68
2022/11/22 01:29:57;;;;;;;21.20;9.82;;;4.10;99.90;;;;;;5074007;28;20033;-68
2022/11/22 01:32:22;;;;;;;22.75;11.52;;;4.20;99.90;;;;;;5073750;28;20123;-68
2022/11/22 01:34:48;;;;;;;21.83;10.85;;;4.10;99.90;;;;;;5072340;28;20625;-68
2022/11/22 01:37:14;;;;;;;25.00;11.10;;;4.10;99.90;;;;;;5073732;28;20445;-68
2022/11/22 01:39:40;;;;;;;19.90;9.57;;;4.10;99.90;;;;;;5073693;28;20519;-68
2022/11/22 01:42:05;;;;;;;25.77;11.15;;;4.10;99.90;;;;;;5073848;28;20397;-68
2022/11/22 01:44:32;;;;;;;20.88;9.43;;;4.20;99.90;;;;;;5073380;28;20039;-68
2022/11/22 01:47:11;;;;;;;20.48;10.32;;;4.20;99.90;;;;;;5073650;28;20046;-68
2022/11/22 01:49:46;;;;;;;25.70;10.77;;;4.20;99.90;;;;;;5055775;28;20055;-68
2022/11/22 01:52:22;;;;;;;27.33;11.52;;;4.20;99.90;;;;;;5073825;28;20109;-68
2022/11/22 01:54:55;;;;;;;24.88;10.82;;;4.20;99.90;;;;;;5073281;28;20075;-68
2022/11/22 01:57:25;;;;;;;19.70;10.18;;;4.20;99.90;;;;;;5073568;28;20041;-68
2022/11/22 01:59:57;;;;;;;21.55;9.75;;;4.20;99.90;;;;;;5073145;28;20036;-68
2022/11/22 02:02:24;;;;;;;19.23;9.65;;;4.30;99.90;;;;;;5073494;28;20084;-68
2022/11/22 02:04:51;;;;;;;22.38;11.32;;;4.30;99.90;;;;;;5072960;28;20489;-68
2022/11/22 02:07:22;;;;;;;20.23;10.13;;;4.20;99.90;;;;;;5073558;28;20043;-68
2022/11/22 02:09:51;;;;;;;19.77;9.82;;;4.30;99.90;;;;;;5073149;28;20606;-68
2022/11/22 02:12:23;;;;;;;21.48;9.90;;;4.30;99.90;;;;;;5073249;28;20048;-68
2022/11/22 02:14:49;;;;;;;20.52;9.18;;;4.20;99.90;;;;;;5073142;28;20080;-68
2022/11/22 02:17:14;;;;;;;21.17;9.52;;;4.40;99.90;;;;;;5073055;28;20083;-68
2022/11/22 02:19:48;;;;;;;23.30;10.00;;;4.40;99.90;;;;;;5073360;28;20036;-67
2022/11/22 02:22:43;;;;;;;21.65;9.73;;;4.30;99.90;;;;;;5072865;28;20048;-68
2022/11/22 02:25:24;;;;;;;23.40;10.98;;;4.30;99.90;;;;;;5072763;28;20048;-68
2022/11/22 02:27:50;;;;;;;18.95;9.45;;;4.40;99.90;;;;;;5071709;28;20493;-67
2022/11/22 02:30:16;;;;;;;21.85;10.70;;;4.30;99.90;;;;;;5072911;28;20058;-68
2022/11/22 02:32:42;;;;;;;27.77;10.13;;;4.40;99.90;;;;;;5072668;28;20040;-67
2022/11/22 02:35:23;;;;;;;20.35;9.20;;;4.40;99.90;;;;;;5072766;28;20044;-68
2022/11/22 02:38:01;;;;;;;19.92;9.77;;;4.40;99.90;;;;;;5072876;28;20083;-67
2022/11/22 02:40:31;;;;;;;20.75;9.48;;;4.40;99.90;;;;;;5070585;28;20044;-67
2022/11/22 02:43:06;;;;;;;21.17;9.10;;;4.40;99.90;;;;;;5072323;28;20105;-68
2022/11/22 02:45:32;;;;;;;22.65;9.35;;;4.40;99.90;;;;;;5072411;28;20041;-68
2022/11/22 02:48:09;;;;;;;21.00;9.02;;;4.40;99.90;;;;;;5072772;28;20113;-68
2022/11/22 02:50:35;;;;;;;17.05;9.05;;;4.50;99.90;;;;;;5072495;28;20032;-68
2022/11/22 02:53:01;;;;;;;22.70;9.70;;;4.50;99.90;;;;;;5071137;28;20521;-68
2022/11/22 02:55:27;;;;;;;18.92;9.50;;;4.50;99.90;;;;;;5072006;28;20430;-68
2022/11/22 02:57:53;;;;;;;21.15;10.32;;;4.40;99.90;;;;;;5072181;28;20131;-68
2022/11/22 03:00:19;;;;;;;18.27;9.57;;;4.40;99.90;;;;;;5072001;28;20032;-68
2022/11/22 03:02:44;;;;;;;24.25;9.98;;;4.40;99.90;;;;;;5072311;28;20040;-67
2022/11/22 03:05:10;;;;;;;19.65;9.60;;;4.50;99.90;;;;;;5071059;28;20040;-68
2022/11/22 03:07:35;;;;;;;19.98;9.45;;;4.50;99.90;;;;;;5072156;28;20040;-68
2022/11/22 03:10:01;;;;;;;21.20;9.43;;;4.40;99.90;;;;;;5072069;28;20058;-68
2022/11/22 03:12:26;;;;;;;22.02;9.57;;;4.50;99.90;;;;;;5070696;28;20143;-68
2022/11/22 03:14:52;;;;;;;16.83;8.88;;;4.50;99.90;;;;;;5071191;28;20047;-68
2022/11/22 03:17:17;;;;;;;16.48;9.38;;;4.50;99.90;;;;;;5071917;28;20079;-68
2022/11/22 03:19:43;;;;;;;17.80;9.23;;;4.50;99.90;;;;;;5072108;28;20485;-68
2022/11/22 03:22:08;;;;;;;17.42;8.38;;;4.50;99.90;;;;;;5071694;28;20036;-68
2022/11/22 03:24:34;;;;;;;22.60;10.07;;;4.60;99.90;;;;;;5071618;28;20492;-69
2022/11/22 03:26:59;;;;;;;21.25;9.43;;;4.50;99.90;;;;;;5071927;28;20036;-68
2022/11/22 03:29:25;;;;;;;18.77;8.68;;;4.60;99.90;;;;;;5070377;28;20040;-68
2022/11/22 03:31:50;;;;;;;19.20;9.27;;;4.60;99.90;;;;;;5071663;28;20428;-68
2022/11/22 03:34:16;;;;;;;17.15;8.68;;;4.60;99.90;;;;;;5071528;28;20447;-68
2022/11/22 03:36:42;;;;;;;15.88;8.77;;;4.60;99.90;;;;;;5071404;28;20040;-68
2022/11/22 03:39:07;;;;;;;18.10;9.55;;;4.60;99.90;;;;;;5071683;28;20595;-68
2022/11/22 03:41:33;;;;;;;17.80;8.80;;;4.60;99.90;;;;;;5071281;28;20517;-68
2022/11/22 03:43:58;;;;;;;15.25;8.23;;;4.60;99.90;;;;;;5069586;28;20159;-68
2022/11/22 03:46:24;;;;;;;17.83;9.45;;;4.60;99.90;;;;;;5071593;28;20048;-68
2022/11/22 03:48:49;;;;;;;19.13;8.60;;;4.60;99.90;;;;;;5071308;28;20045;-68
2022/11/22 03:51:15;;;;;;;21.02;8.98;;;4.60;99.90;;;;;;5070916;28;20063;-68
2022/11/22 03:53:40;;;;;;;17.58;8.60;;;4.60;99.90;;;;;;5070674;28;20135;-69
2022/11/22 03:56:06;;;;;;;23.83;8.90;;;4.60;99.90;;;;;;5071255;28;20044;-68
2022/11/22 03:58:32;;;;;;;16.52;8.95;;;4.60;99.90;;;;;;5070948;28;20045;-68
2022/11/22 04:00:57;;;;;;;17.60;9.70;;;4.60;99.90;;;;;;5071416;28;20048;-68
2022/11/22 04:03:23;;;;;;;15.90;8.65;;;4.70;99.90;;;;;;5070970;28;20566;-68
2022/11/22 04:05:49;;;;;;;21.35;10.00;;;4.70;99.90;;;;;;5071172;28;20039;-68
2022/11/22 04:08:14;;;;;;;19.65;9.38;;;4.70;99.90;;;;;;5071215;28;20057;-68
2022/11/22 04:10:40;;;;;;;19.80;9.90;;;4.70;99.90;;;;;;5071192;28;20043;-68
2022/11/22 04:13:06;;;;;;;20.45;8.80;;;4.70;99.90;;;;;;5071098;28;20051;-68
2022/11/22 04:15:31;;;;;;;16.67;8.95;;;4.80;99.90;;;;;;5070370;28;20135;-68
2022/11/22 04:17:57;;;;;;;15.43;8.40;;;4.70;99.90;;;;;;5071299;28;20041;-68
2022/11/22 04:23:11;;;;;;;17.75;8.68;;;4.80;99.90;;;;;;5070715;28;20048;-68
2022/11/22 04:25:39;;;;;;;17.63;9.18;;;4.80;99.90;;;;;;5070564;28;20119;-68
2022/11/22 04:28:07;;;;;;;15.65;7.85;;;4.80;99.90;;;;;;5070877;28;20123;-68
2022/11/22 04:33:18;;;;;;;16.45;8.80;;;4.90;99.90;;;;;;5070950;28;20074;-68
2022/11/22 04:35:44;;;;;;;17.75;8.65;;;4.80;99.90;;;;;;5070756;28;20469;-68
2022/11/22 04:38:11;;;;;;;15.43;8.60;;;4.90;99.90;;;;;;5070783;28;20127;-68
2022/11/22 04:40:37;;;;;;;21.90;9.30;;;4.90;99.90;;;;;;5069411;28;20045;-68
2022/11/22 04:45:47;;;;;;;16.73;8.15;;;4.90;99.90;;;;;;5070457;28;20036;-68
2022/11/22 04:48:13;;;;;;;22.38;9.48;;;4.90;99.90;;;;;;5070623;28;20040;-68
2022/11/22 04:53:25;;;;;;;13.85;7.90;;;5.00;99.90;;;;;;5070409;28;20045;-69
2022/11/22 04:55:51;;;;;;;16.45;8.43;;;5.00;99.90;;;;;;5070380;28;20055;-68
2022/11/22 04:58:17;;;;;;;17.70;8.50;;;5.00;99.90;;;;;;5070441;28;20034;-68
2022/11/22 05:00:43;;;;;;;16.02;8.13;;;5.00;99.90;;;;;;5070705;28;20040;-68
2022/11/22 05:03:09;;;;;;;15.27;8.60;;;5.10;99.90;;;;;;5072914;28;20044;-68
2022/11/22 05:05:39;;;;;;;19.05;8.68;;;5.00;99.90;;;;;;5073929;28;20565;-68
2022/11/22 05:08:06;;;;;;;24.02;9.50;;;5.10;99.90;;;;;;5074718;28;20037;-68
2022/11/22 05:10:55;;;;;;;14.68;8.20;;;5.10;99.90;;;;;;5074596;28;20094;-68
2022/11/22 05:13:20;;;;;;;12.75;8.75;;;5.00;99.90;;;;;;5074126;28;20401;-68
2022/11/22 05:15:45;;;;;;;17.17;8.75;;;5.10;99.90;;;;;;5073625;28;20044;-68
2022/11/22 05:18:11;;;;;;;16.42;9.05;;;5.20;99.90;;;;;;5074103;28;20044;-68
2022/11/22 05:20:37;;;;;;;15.27;8.65;;;5.20;99.90;;;;;;5074246;28;20525;-68
2022/11/22 05:25:46;;;;;;;16.30;7.45;;;5.20;99.90;;;;;;5073805;28;20045;-68
2022/11/22 05:28:12;;;;;;;12.70;8.43;;;5.20;99.90;;;;;;5074249;28;20033;-68
2022/11/22 05:30:38;;;;;;;16.45;8.23;;;5.30;99.90;;;;;;5072874;28;20463;-68
2022/11/22 05:33:04;;;;;;;15.13;8.20;;;5.30;99.90;;;;;;5072948;28;20504;-68
2022/11/22 05:35:30;;;;;;;17.08;8.50;;;5.30;99.90;;;;;;5073683;28;20132;-68
2022/11/22 05:37:56;;;;;;;13.73;7.82;;;5.40;99.90;;;;;;5074038;28;20052;-68
2022/11/22 05:40:22;;;;;;;15.75;8.85;;;5.40;99.90;;;;;;5074013;28;20036;-68
2022/11/22 05:42:48;;;;;;;16.92;8.48;;;5.40;99.90;;;;;;5073223;28;20101;-68
2022/11/22 05:45:13;;;;;;;16.08;7.22;;;5.40;99.90;;;;;;5073286;28;20048;-68
2022/11/22 05:47:39;;;;;;;17.45;8.45;;;5.40;99.90;;;;;;5073824;28;20044;-68
2022/11/22 05:50:04;;;;;;;17.85;7.57;;;5.40;99.90;;;;;;5073802;28;20127;-69
2022/11/22 05:52:30;;;;;;;14.70;8.15;;;5.40;99.90;;;;;;5073550;28;20044;-68
2022/11/22 05:54:56;;;;;;;14.52;8.15;;;5.50;99.90;;;;;;5073377;28;20492;-68
2022/11/22 05:57:21;;;;;;;18.42;7.70;;;5.50;99.90;;;;;;5073727;28;20041;-68
2022/11/22 05:59:47;;;;;;;12.30;7.07;;;5.50;99.90;;;;;;5073337;28;20044;-68
2022/11/22 06:02:12;;;;;;;17.85;8.25;;;5.60;99.90;;;;;;5073496;28;20036;-68
2022/11/22 06:04:38;;;;;;;13.38;7.78;;;5.50;99.90;;;;;;5073112;28;20068;-68
2022/11/22 06:07:03;;;;;;;16.70;8.07;;;5.60;99.90;;;;;;5073458;28;20036;-68
2022/11/22 06:09:29;;;;;;;13.85;6.47;;;5.60;99.90;;;;;;5073042;28;20489;-68
2022/11/22 06:11:54;;;;;;;17.75;6.95;;;5.60;99.90;;;;;;5073310;28;20045;-69
2022/11/22 06:14:20;;;;;;;13.77;7.32;;;5.70;99.90;;;;;;5070808;28;20043;-68
2022/11/22 06:16:45;;;;;;;17.52;6.50;;;5.70;99.90;;;;;;5073422;28;20119;-68
2022/11/22 06:19:11;;;;;;;17.38;7.35;;;5.70;99.90;;;;;;5073219;28;20041;-68
2022/11/22 06:21:38;;;;;;;14.40;6.95;;;5.70;99.90;;;;;;5073272;28;20040;-68
2022/11/22 06:24:03;;;;;;;15.20;7.70;;;5.70;99.90;;;;;;5071470;28;20476;-68
2022/11/22 06:26:29;;;;;;;14.40;6.15;;;5.70;99.90;;;;;;5072895;28;20068;-69
2022/11/22 06:28:54;;;;;;;14.35;6.60;;;5.70;99.90;;;;;;5072710;28;20033;-68
2022/11/22 06:31:24;;;;;;;15.95;6.97;;;5.60;99.90;;;;;;5072645;28;20090;-68
2022/11/22 06:33:52;;;;;;;17.70;7.00;;;5.60;99.90;;;;;;5054503;28;20094;-68
2022/11/22 06:36:21;;;;;;;13.25;7.18;;;5.70;99.90;;;;;;5073039;28;20131;-68
2022/11/22 06:38:47;;;;;;;10.70;6.53;;;5.70;99.90;;;;;;5072766;28;20106;-68
2022/11/22 06:41:19;;;;;;;14.68;8.25;;;5.70;99.90;;;;;;5072445;28;20032;-68
2022/11/22 06:43:45;;;;;;;17.80;7.70;;;5.70;99.90;;;;;;5072464;28;20063;-69
2022/11/22 06:46:12;;;;;;;16.50;6.82;;;5.60;99.90;;;;;;5072708;28;20471;-68
2022/11/22 06:48:39;;;;;;;16.25;6.55;;;5.70;99.90;;;;;;5072881;28;20140;-68
2022/11/22 06:51:10;;;;;;;19.55;6.38;;;5.60;99.90;;;;;;5072885;28;20082;-68
2022/11/22 06:53:36;;;;;;;13.93;5.80;;;5.60;99.90;;;;;;5072300;28;20404;-69
2022/11/22 06:56:08;;;;;;;13.70;5.65;;;5.60;99.90;;;;;;5072344;28;20062;-68
2022/11/22 06:58:33;;;;;;;15.98;6.13;;;5.60;99.90;;;;;;5072349;28;20082;-69
2022/11/22 07:01:10;;;;;;;20.10;6.97;;;5.60;99.90;;;;;;5072448;28;20080;-68
2022/11/22 07:03:37;;;;;;;11.18;5.47;;;5.60;99.90;;;;;;5072136;28;20412;-69
2022/11/22 07:06:04;;;;;;;11.45;5.72;;;5.60;99.90;;;;;;5051388;28;20040;-68
2022/11/22 07:08:30;;;;;;;19.30;6.03;;;5.60;99.90;;;;;;5068464;28;20068;-69
2022/11/22 07:11:01;;;;;;;13.48;5.45;;;5.50;99.90;;;;;;5069106;28;20068;-69
2022/11/22 07:13:27;;;;;;;15.23;5.65;;;5.50;99.90;;;;;;5068871;28;20044;-68
2022/11/22 07:15:57;;;;;;;13.10;5.10;;;5.50;99.90;;;;;;5069100;28;20504;-68
2022/11/22 07:18:24;;;;;;;16.77;5.55;;;5.50;99.90;;;;;;5068915;28;20505;-69
2022/11/22 07:20:49;;;;;;;18.88;4.50;;;5.60;99.90;;;;;;5069298;28;20543;-68
2022/11/22 07:23:15;;;;;;;17.02;5.25;;;5.60;99.90;;;;;;5069648;28;20082;-69
2022/11/22 07:25:47;;;;;;;14.02;4.45;;;5.60;99.90;;;;;;5071173;28;20497;-68
2022/11/22 07:28:14;;;;;;;16.90;4.93;;;5.60;99.90;;;;;;5071253;28;20038;-68
2022/11/22 07:30:40;;;;;;;15.02;4.70;;;5.60;99.90;;;;;;5070222;28;20051;-69
2022/11/22 07:33:06;;;;;;;13.10;4.32;;;5.60;99.90;;;;;;5071775;28;20044;-69
2022/11/22 07:35:32;;;;;;;16.58;4.50;;;5.60;99.90;;;;;;5071363;28;20040;-66
2022/11/22 07:37:58;;;;;;;12.13;3.72;;;5.60;99.90;;;;;;5071695;28;20526;-66
2022/11/22 07:40:23;;;;;;;10.73;4.10;;;5.50;99.90;;;;;;5071467;28;20601;-67
2022/11/22 07:42:49;;;;;;;11.25;3.75;;;5.50;99.90;;;;;;5071216;28;20075;-67
2022/11/22 07:45:14;;;;;;;16.63;3.38;;;5.50;99.90;;;;;;5069580;28;20123;-68
2022/11/22 07:47:40;;;;;;;11.48;3.15;;;5.50;99.90;;;;;;5071545;28;20071;-68
2022/11/22 07:50:06;;;;;;;12.45;3.15;;;5.50;99.90;;;;;;5071460;28;20043;-68
2022/11/22 07:52:32;;;;;;;6.38;3.63;;;5.50;99.90;;;;;;5071336;28;20040;-67
2022/11/22 07:54:57;;;;;;;11.18;3.15;;;5.50;99.90;;;;;;5054877;28;20055;-67
2022/11/22 07:57:23;;;;;;;18.10;3.30;;;5.50;99.90;;;;;;5051375;28;20386;-66
2022/11/22 07:59:48;;;;;;;12.68;2.92;;;5.50;99.90;;;;;;5051055;28;20513;-66
2022/11/22 08:02:14;;;;;;;12.38;2.80;;;5.50;99.90;;;;;;5051284;28;20053;-69
2022/11/22 08:04:40;;;;;;;13.45;3.38;;;5.50;99.90;;;;;;5050674;28;20628;-66
2022/11/22 08:07:06;;;;;;;17.15;3.25;;;5.50;99.90;;;;;;5050839;28;20047;-66
2022/11/22 08:09:31;;;;;;;15.38;2.85;;;5.50;99.90;;;;;;5063639;28;20120;-68
2022/11/22 08:11:57;;;;;;;9.05;3.33;;;5.40;99.90;;;;;;5066413;28;20032;-68
2022/11/22 08:14:23;;;;;;;9.90;3.42;;;5.40;99.90;;;;;;5061311;28;20092;-68
2022/11/22 08:16:48;;;;;;;6.47;2.67;;;5.50;99.90;;;;;;5070484;28;20041;-67
2022/11/22 08:19:16;;;;;;;11.52;4.03;;;5.40;99.90;;;;;;5069711;28;20045;-67
2022/11/22 08:21:47;;;;;;;13.40;2.97;;;5.40;99.90;;;;;;5070436;28;20083;-69
2022/11/22 08:24:13;;;;;;;8.52;2.50;;;5.50;99.90;;;;;;5070129;28;20036;-68
2022/11/22 08:26:38;;;;;;;11.45;2.60;;;5.40;99.90;;;;;;5062799;28;20071;-68
2022/11/22 08:29:06;;;;;;;8.27;2.25;;;5.50;99.90;;;;;;5050390;28;20036;-68
2022/11/22 08:31:32;;;;;;;8.98;2.83;;;5.50;99.90;;;;;;5050510;28;20041;-68
2022/11/22 08:33:58;;;;;;;11.73;3.20;;;5.50;99.90;;;;;;5050205;28;20090;-67
2022/11/22 08:36:24;;;;;;;12.77;3.00;;;5.50;99.90;;;;;;5049932;28;20049;-68
2022/11/22 08:38:49;;;;;;;13.27;2.30;;;5.50;99.90;;;;;;5050599;28;20055;-68
2022/11/22 08:41:16;;;;;;;10.05;2.60;;;5.60;99.90;;;;;;5050173;28;20053;-68
2022/11/22 08:43:41;;;;;;;13.88;2.83;;;5.60;99.90;;;;;;5050657;28;20051;-68
2022/11/22 08:46:07;;;;;;;14.02;2.42;;;5.60;99.90;;;;;;5050416;28;20429;-67
2022/11/22 08:48:35;;;;;;;17.10;3.33;;;5.60;99.90;;;;;;5049283;28;20627;-67
2022/11/22 08:51:03;;;;;;;10.15;2.17;;;5.60;99.90;;;;;;5052388;28;20033;-67
2022/11/22 08:53:31;;;;;;;13.65;2.55;;;5.70;99.90;;;;;;5055218;28;20056;-68
2022/11/22 08:56:02;;;;;;;7.90;2.17;;;5.70;99.90;;;;;;5050373;28;20493;-66
2022/11/22 08:58:29;;;;;;;8.65;2.33;;;5.70;99.90;;;;;;5050410;28;20041;-67
2022/11/22 09:00:55;;;;;;;8.15;2.58;;;5.80;99.90;;;;;;5050804;28;20496;-66
2022/11/22 09:03:21;;;;;;;7.22;2.38;;;5.80;99.90;;;;;;5050302;28;20073;-66
2022/11/22 09:05:47;;;;;;;11.70;2.50;;;5.80;99.90;;;;;;5050472;28;20041;-66
2022/11/22 09:08:12;;;;;;;11.32;2.38;;;5.90;99.90;;;;;;5050546;28;20041;-67
2022/11/22 09:10:38;;;;;;;10.40;2.42;;;5.90;99.90;;;;;;5050645;28;20037;-67
2022/11/22 09:13:04;;;;;;;15.57;2.90;;;5.90;99.90;;;;;;5058076;28;20068;-67
2022/11/22 09:15:30;;;;;;;10.32;3.03;;;5.90;99.90;;;;;;5058716;28;20068;-67
2022/11/22 09:18:02;;;;;;;10.20;2.70;;;5.90;99.90;;;;;;5068247;28;20048;-70
2022/11/22 09:20:28;;;;;;;11.45;2.90;;;6.00;99.90;;;;;;5070153;28;20072;-69
2022/11/22 09:22:53;;;;;;;6.32;2.30;;;6.00;99.90;;;;;;5068777;28;20086;-70
2022/11/22 09:25:19;;;;;;;11.43;2.50;;;6.00;99.90;;;;;;5069996;28;20048;-70
2022/11/22 09:27:44;;;;;;;16.35;3.20;;;6.00;99.90;;;;;;5061343;28;20444;-70
2022/11/22 09:30:10;;;;;;;16.40;2.80;;;6.00;99.90;;;;;;5050313;28;20120;-69
2022/11/22 09:32:36;;;;;;;9.88;2.72;;;6.10;99.90;;;;;;5050459;28;20489;-68
2022/11/22 09:35:02;;;;;;;6.85;2.58;;;6.10;99.90;;;;;;5059033;28;20139;-69
2022/11/22 09:37:27;;;;;;;7.68;2.20;;;6.10;99.90;;;;;;5059579;28;20120;-69
2022/11/22 09:39:53;;;;;;;9.05;2.63;;;6.10;99.90;;;;;;5060879;28;20558;-69
2022/11/22 09:42:46;;;;;;;13.50;2.55;;;6.10;99.90;;;;;;5059078;28;20044;-69
2022/11/22 09:45:32;;;;;;;14.23;2.40;;;6.20;99.90;;;;;;5049804;28;20052;-69
2022/11/22 09:48:19;;;;;;;14.57;2.40;;;6.20;99.90;;;;;;5060252;28;20443;-69
2022/11/22 09:51:05;;;;;;;9.57;2.75;;;6.20;99.90;;;;;;5062943;28;20083;-69
2022/11/22 09:53:48;;;;;;;7.85;2.50;;;6.30;99.90;;;;;;5063653;28;20123;-69
2022/11/22 09:56:21;;;;;;;13.80;2.47;;;6.30;99.90;;;;;;5064129;28;20048;-69
2022/11/22 09:58:58;;;;;;;8.35;2.10;;;6.30;99.90;;;;;;5062914;28;20436;-69
2022/11/22 10:01:30;;;;;;;9.25;2.38;;;6.30;99.90;;;;;;5061502;28;20047;-69
2022/11/22 10:04:20;;;;;;;10.68;2.63;;;6.40;99.90;;;;;;5061194;28;20050;-69
2022/11/22 10:06:51;;;;;;;9.02;2.08;;;6.40;99.90;;;;;;5053574;28;20059;-69
2022/11/22 10:09:42;;;;;;;9.15;2.42;;;6.50;99.90;;;;;;5053631;28;20037;-68
2022/11/22 10:12:23;;;;;;;7.03;2.08;;;6.50;99.90;;;;;;5053194;28;20041;-67
2022/11/22 10:15:02;;;;;;;3.47;2.00;;;6.70;99.90;;;;;;5052992;28;20041;-67
2022/11/22 10:17:48;;;;;;;8.63;3.58;;;6.60;99.90;;;;;;5053300;28;20045;-67
2022/11/22 10:20:19;;;;;;;4.60;2.10;;;6.70;99.90;;;;;;5053293;28;20045;-67
2022/11/22 10:22:47;;;;;;;4.32;2.10;;;6.70;99.90;;;;;;5052747;28;20037;-67
2022/11/22 10:25:41;;;;;;;4.93;2.60;;;6.80;99.90;;;;;;5051541;28;20041;-67
2022/11/22 10:28:33;;;;;;;10.27;2.28;;;6.80;99.90;;;;;;5052574;28;20048;-67
2022/11/22 10:31:14;;;;;;;13.15;2.50;;;6.90;99.90;;;;;;5053042;28;20036;-66
2022/11/22 10:34:02;;;;;;;9.02;2.38;;;6.90;99.90;;;;;;5052611;28;20657;-67
2022/11/22 10:37:04;;;;;;;8.93;2.63;;;7.00;99.90;;;;;;5052918;28;20488;-66
2022/11/22 10:39:42;;;;;;;7.25;1.95;;;7.00;99.90;;;;;;5051462;28;20051;-69
2022/11/22 10:42:20;;;;;;;7.53;1.88;;;7.00;99.90;;;;;;5052861;28;20049;-67
2022/11/22 10:45:10;;;;;;;10.45;2.00;;;7.00;99.90;;;;;;5052226;28;20501;-66
2022/11/22 10:47:44;;;;;;;6.97;2.20;;;7.00;99.90;;;;;;5052972;28;20029;-67
2022/11/22 10:50:22;;;;;;;9.48;2.20;;;7.10;99.90;;;;;;5058430;28;20666;-67
2022/11/22 10:53:15;;;;;;;8.80;2.30;;;7.20;99.90;;;;;;5060140;28;20071;-67
2022/11/22 10:55:52;;;;;;;7.03;1.98;;;7.20;99.90;;;;;;5062381;28;20080;-66
2022/11/22 10:58:39;;;;;;;5.95;1.65;;;7.20;99.90;;;;;;5062252;28;20434;-66
2022/11/22 11:01:18;;;;;;;13.95;2.80;;;7.20;99.90;;;;;;5062372;28;20037;-67
2022/11/22 11:03:46;;;;;;;12.20;2.05;;;7.20;99.90;;;;;;5062724;28;20081;-67
2022/11/22 11:06:26;;;;;;;5.88;1.75;;;7.20;99.90;;;;;;5061386;28;20116;-67
2022/11/22 11:08:56;;;;;;;5.15;2.22;;;7.20;99.90;;;;;;5061145;28;20486;-67
2022/11/22 11:11:25;;;;;;;5.57;2.22;;;7.30;99.90;;;;;;5061083;28;20039;-67
2022/11/22 11:13:58;;;;;;;4.65;2.72;;;7.30;99.90;;;;;;5060431;28;20041;-67
2022/11/22 11:16:29;;;;;;;7.97;2.53;;;7.30;99.90;;;;;;5068267;28;20048;-67
2022/11/22 11:19:10;;;;;;;5.30;1.98;;;7.40;99.90;;;;;;5071806;28;20041;-67
2022/11/22 11:21:36;;;;;;;5.03;1.98;;;7.40;99.90;;;;;;5071935;28;20118;-67
2022/11/22 11:24:02;;;;;;;10.18;2.08;;;7.40;99.90;;;;;;5071366;28;20492;-67
2022/11/22 11:26:33;;;;;;;6.30;2.10;;;7.40;99.90;;;;;;5071977;28;20519;-67
2022/11/22 11:29:17;;;;;;;3.80;1.55;;;7.40;99.90;;;;;;5071660;28;20044;-67
2022/11/22 11:31:45;;;;;;;8.50;2.05;;;7.40;99.90;;;;;;5071831;28;20074;-67
2022/11/22 11:34:23;;;;;;;3.80;1.80;;;7.50;99.90;;;;;;5071388;28;20095;-67
2022/11/22 11:36:49;;;;;;;3.38;1.77;;;7.50;99.90;;;;;;5054048;28;20044;-67
2022/11/22 11:39:29;;;;;;;5.75;1.92;;;7.50;99.90;;;;;;5071384;28;20516;-67
2022/11/22 11:41:55;;;;;;;6.90;2.33;;;7.60;99.90;;;;;;5071429;28;20044;-67
2022/11/22 11:44:35;;;;;;;13.73;2.33;;;7.50;99.90;;;;;;5070923;28;20493;-67
2022/11/22 11:47:02;;;;;;;3.60;1.77;;;7.50;99.90;;;;;;5071679;28;20032;-67
2022/11/22 11:49:32;;;;;;;4.95;1.77;;;7.50;99.90;;;;;;5071524;28;20036;-67
2022/11/22 11:52:10;;;;;;;6.35;1.98;;;7.50;99.90;;;;;;5070807;28;20488;-67
2022/11/22 11:54:39;;;;;;;9.38;2.00;;;7.50;99.90;;;;;;5070796;28;20397;-67
2022/11/22 11:57:09;;;;;;;6.15;1.98;;;7.50;99.90;;;;;;5071430;28;20048;-66
2022/11/22 11:59:35;;;;;;;4.43;1.55;;;7.70;99.90;;;;;;5071086;28;20044;-67
2022/11/22 12:02:04;;;;;;;8.00;1.70;;;7.70;99.90;;;;;;5070938;28;20048;-67
2022/11/22 12:04:48;;;;;;;4.50;1.45;;;7.60;99.90;;;;;;5069664;28;20040;-67
2022/11/22 12:07:16;;;;;;;5.63;2.08;;;7.60;99.90;;;;;;5070667;28;20500;-67
2022/11/22 12:09:44;;;;;;;10.20;2.22;;;7.70;99.90;;;;;;5071225;28;20128;-67
2022/11/22 12:12:39;;;;;;;3.50;1.88;;;7.70;99.90;;;;;;5070784;28;20044;-67
2022/11/22 12:15:20;;;;;;;3.92;2.20;;;7.70;99.90;;;;;;5068303;28;20424;-67
2022/11/22 12:18:22;;;;;;;5.57;1.80;;;7.70;99.90;;;;;;5071084;28;20051;-67
2022/11/22 12:21:16;;;;;;;6.63;2.10;;;7.70;99.90;;;;;;5070771;28;20086;-66
2022/11/22 12:23:55;;;;;;;4.28;2.05;;;7.80;99.90;;;;;;5049106;28;20194;-66
2022/11/22 12:26:20;;;;;;;4.22;2.25;;;7.80;99.90;;;;;;5059235;28;20514;-66
2022/11/22 12:28:46;;;;;;;9.25;2.28;;;7.80;99.90;;;;;;5055985;28;20074;-66
2022/11/22 12:31:26;;;;;;;5.72;2.13;;;7.80;99.90;;;;;;5060154;28;20047;-66
2022/11/22 12:34:04;;;;;;;4.20;1.80;;;7.80;99.90;;;;;;5057628;28;20037;-66
2022/11/22 12:36:45;;;;;;;4.65;2.10;;;7.80;99.90;;;;;;5071153;28;20059;-66
2022/11/22 12:39:18;;;;;;;5.47;2.17;;;7.80;99.90;;;;;;5069316;28;20051;-65
2022/11/22 12:41:45;;;;;;;;;;;7.80;99.90;;;;;;5071239;28;20536;-66
2022/11/22 12:44:19;;;;;;;5.72;1.70;;;7.80;99.90;;;;;;5064093;28;19926;-66
2022/11/22 12:47:12;;;;;;;4.63;1.83;;;7.80;99.90;;;;;;5058712;28;20048;-65
2022/11/22 12:49:45;;;;;;;5.35;1.83;;;7.80;99.90;;;;;;5058294;28;20504;-65
2022/11/22 12:52:36;;;;;;;7.28;1.98;;;7.80;99.90;;;;;;5061245;28;20052;-65
2022/11/22 12:55:09;;;;;;;7.68;1.83;;;7.80;99.90;;;;;;5064146;28;20044;-65
2022/11/22 12:58:03;;;;;;;7.07;2.00;;;7.80;99.90;;;;;;5068822;28;20564;-65
2022/11/22 13:00:33;;;;;;;5.90;1.70;;;7.70;99.90;;;;;;5069859;28;20055;-64
2022/11/22 13:03:12;;;;;;;5.95;2.38;;;7.80;99.90;;;;;;5068679;28;20048;-65
2022/11/22 13:05:56;;;;;;;6.78;2.33;;;7.70;99.90;;;;;;5064286;28;20086;-66
2022/11/22 13:08:32;;;;;;;6.18;2.20;;;7.70;99.90;;;;;;5070281;28;20044;-65
2022/11/22 13:11:24;;;;;;;4.97;1.80;;;7.70;99.90;;;;;;5070216;28;20032;-65
2022/11/22 13:13:57;;;;;;;3.83;2.00;;;7.70;99.90;;;;;;5070029;28;20082;-65